createdAt,value
2023-06-19T00:14:48.954Z,3.20
2023-06-19T00:17:17.946Z,3.60
2023-06-19T00:19:45.370Z,3.40
2023-06-19T00:22:12.201Z,3.40
2023-06-19T00:24:39.106Z,3.20
2023-06-19T00:27:06.871Z,3.67
2023-06-19T00:29:35.580Z,3.70
2023-06-19T00:32:02.651Z,3.33
2023-06-19T00:34:31.007Z,3.73
2023-06-19T00:37:00.710Z,3.07
2023-06-19T00:39:28.562Z,3.37
2023-06-19T00:41:57.849Z,3.50
2023-06-19T00:44:24.684Z,3.30
2023-06-19T00:46:53.042Z,3.33
2023-06-19T00:49:19.913Z,3.30
2023-06-19T00:51:46.968Z,3.37
2023-06-19T00:54:15.521Z,2.93
2023-06-19T00:56:42.318Z,3.20
2023-06-19T00:59:14.478Z,3.17
2023-06-19T01:01:42.761Z,3.40
2023-06-19T01:04:09.645Z,3.10
2023-06-19T01:06:52.820Z,2.70
2023-06-19T01:09:21.031Z,2.93
2023-06-19T01:11:51.986Z,2.80
2023-06-19T01:14:40.580Z,2.57
2023-06-19T01:17:07.877Z,3.00
2023-06-19T01:19:35.681Z,3.10
2023-06-19T01:22:05.363Z,2.77
2023-06-19T01:24:32.393Z,3.10
2023-06-19T01:27:01.760Z,3.33
2023-06-19T01:29:28.792Z,3.07
2023-06-19T01:32:11.685Z,3.40
2023-06-19T01:34:40.805Z,2.87
2023-06-19T01:37:08.754Z,3.00
2023-06-19T01:39:37.903Z,2.80
2023-06-19T01:42:05.760Z,2.73
2023-06-19T01:44:33.894Z,2.80
2023-06-19T01:47:00.785Z,2.97
2023-06-19T01:49:27.690Z,3.00
2023-06-19T01:51:54.516Z,3.10
2023-06-19T01:54:21.344Z,3.03
2023-06-19T01:56:48.736Z,2.90
2023-06-19T01:59:15.748Z,3.10
2023-06-19T02:01:42.605Z,2.60
2023-06-19T02:04:09.478Z,3.00
2023-06-19T02:06:37.684Z,2.90
2023-06-19T02:09:05.711Z,2.87
2023-06-19T02:11:33.429Z,2.90
2023-06-19T02:14:00.273Z,3.13
2023-06-19T02:16:27.138Z,3.23
2023-06-19T02:18:56.989Z,2.97
2023-06-19T02:21:24.349Z,2.80
2023-06-19T02:23:52.295Z,2.67
2023-06-19T02:26:19.252Z,3.00
2023-06-19T02:28:47.366Z,2.70
2023-06-19T02:31:14.118Z,3.10
2023-06-19T02:33:41.042Z,3.57
2023-06-19T02:36:07.834Z,2.87
2023-06-19T02:38:34.660Z,2.70
2023-06-19T02:41:04.454Z,2.60
2023-06-19T02:43:33.284Z,3.10
2023-06-19T02:46:00.150Z,2.90
2023-06-19T02:48:29.067Z,3.17
2023-06-19T02:50:56.589Z,3.03
2023-06-19T02:53:23.717Z,3.07
2023-06-19T02:55:50.529Z,2.80
2023-06-19T02:58:17.277Z,3.03
2023-06-19T03:00:44.801Z,2.63
2023-06-19T03:03:12.858Z,3.27
2023-06-19T03:05:39.837Z,3.30
2023-06-19T03:08:06.878Z,3.07
2023-06-19T03:10:33.958Z,3.43
2023-06-19T03:13:00.738Z,2.80
2023-06-19T03:15:27.675Z,3.63
2023-06-19T03:17:54.986Z,3.93
2023-06-19T03:20:23.996Z,3.77
2023-06-19T03:22:56.247Z,3.77
2023-06-19T03:25:24.670Z,3.67
2023-06-19T03:27:51.890Z,3.63
2023-06-19T03:30:19.935Z,3.70
2023-06-19T03:32:50.544Z,3.73
2023-06-19T03:35:41.869Z,3.63
2023-06-19T03:38:13.219Z,4.50
2023-06-19T03:40:40.444Z,4.10
2023-06-19T03:43:12.280Z,4.67
2023-06-19T03:45:39.611Z,4.23
2023-06-19T03:48:06.828Z,3.93
2023-06-19T03:50:34.749Z,3.87
2023-06-19T03:53:01.644Z,4.33
2023-06-19T03:55:28.556Z,4.13
2023-06-19T03:57:55.670Z,4.10
2023-06-19T04:00:24.009Z,4.33
2023-06-19T04:02:51.724Z,4.10
2023-06-19T04:05:20.780Z,4.57
2023-06-19T04:07:47.987Z,4.20
2023-06-19T04:10:16.206Z,4.17
2023-06-19T04:12:43.157Z,4.90
2023-06-19T04:15:11.816Z,4.37
2023-06-19T04:17:38.780Z,4.90
2023-06-19T04:20:20.739Z,6.50
2023-06-19T04:22:50.814Z,8.20
2023-06-19T04:25:17.874Z,8.73
2023-06-19T04:27:45.789Z,8.30
2023-06-19T04:30:13.112Z,8.40
2023-06-19T04:32:42.801Z,7.90
2023-06-19T04:35:10.732Z,8.03
2023-06-19T04:37:37.629Z,8.30
2023-06-19T04:40:05.455Z,7.53
2023-06-19T04:42:32.492Z,7.23
2023-06-19T04:45:00.781Z,6.57
2023-06-19T04:47:36.412Z,6.53
2023-06-19T04:50:11.008Z,6.47
2023-06-19T04:52:38.831Z,6.20
2023-06-19T04:55:12.200Z,4.93
2023-06-19T04:57:39.152Z,5.33
2023-06-19T05:00:11.399Z,5.00
2023-06-19T05:02:38.470Z,4.93
2023-06-19T05:05:05.947Z,5.07
2023-06-19T05:07:33.104Z,5.30
2023-06-19T05:10:02.236Z,4.60
2023-06-19T05:12:29.079Z,5.07
2023-06-19T05:14:57.316Z,4.90
2023-06-19T05:17:24.288Z,4.57
2023-06-19T05:19:53.657Z,4.77
2023-06-19T05:22:22.661Z,5.13
2023-06-19T05:24:49.712Z,5.40
2023-06-19T05:27:16.614Z,4.50
2023-06-19T05:51:43.738Z,5.13
2023-06-19T05:54:11.048Z,4.97
2023-06-19T05:56:38.898Z,4.80
2023-06-19T05:59:05.850Z,4.70
2023-06-19T06:01:33.099Z,5.30
2023-06-19T06:13:21.600Z,5.53
2023-06-19T06:15:48.611Z,5.27
2023-06-19T06:18:15.448Z,5.47
2023-06-19T06:20:42.880Z,5.93
2023-06-19T06:23:10.443Z,6.27
2023-06-19T06:25:37.397Z,5.57
2023-06-19T06:28:04.538Z,4.97
2023-06-19T06:30:32.263Z,6.00
2023-06-19T06:32:59.651Z,4.87
2023-06-19T06:35:27.017Z,5.20
2023-06-19T06:37:54.143Z,5.27
2023-06-19T06:45:56.944Z,5.60
2023-06-19T06:48:24.639Z,5.53
2023-06-19T06:50:57.429Z,6.00
2023-06-19T06:53:26.816Z,5.13
2023-06-19T06:55:53.857Z,5.73
2023-06-19T06:58:22.636Z,5.73
2023-06-19T07:00:52.559Z,6.10
2023-06-19T07:06:04.448Z,5.97
2023-06-19T07:08:32.003Z,6.17
2023-06-19T07:10:59.585Z,5.13
2023-06-19T07:13:26.837Z,5.70
2023-06-19T07:15:54.344Z,6.53
2023-06-19T07:18:22.881Z,5.43
2023-06-19T07:20:49.760Z,5.90
2023-06-19T07:23:16.819Z,5.80
2023-06-19T07:25:43.697Z,6.10
2023-06-19T07:28:10.686Z,6.30
2023-06-19T07:30:37.518Z,6.27
2023-06-19T07:33:04.770Z,5.87
2023-06-19T07:35:31.832Z,5.93
2023-06-19T07:37:59.091Z,6.17
2023-06-19T07:40:29.166Z,5.33
2023-06-19T07:42:56.258Z,5.77
2023-06-19T07:45:27.095Z,5.70
2023-06-19T07:48:00.518Z,5.90
2023-06-19T07:50:28.955Z,5.97
2023-06-19T07:52:56.174Z,6.13
2023-06-19T07:55:23.035Z,6.20
2023-06-19T07:57:49.926Z,5.50
2023-06-19T08:00:17.166Z,5.83
2023-06-19T08:02:44.127Z,5.50
2023-06-19T08:05:14.270Z,6.30
2023-06-19T08:07:41.591Z,5.83
2023-06-19T08:10:27.613Z,5.80
2023-06-19T08:12:54.812Z,6.13
2023-06-19T08:15:21.878Z,6.37
2023-06-19T08:17:48.767Z,6.53
2023-06-19T08:20:15.727Z,6.20
2023-06-19T08:22:42.712Z,6.70
2023-06-19T08:25:09.813Z,5.43
2023-06-19T08:27:36.953Z,6.60
2023-06-19T08:30:08.408Z,5.60
2023-06-19T08:32:38.453Z,5.57
2023-06-19T08:35:05.895Z,5.33
2023-06-19T08:37:33.055Z,5.70
2023-06-19T08:40:01.132Z,6.07
2023-06-19T08:42:28.879Z,5.80
2023-06-19T08:44:55.966Z,5.57
2023-06-19T08:47:23.027Z,5.63
2023-06-19T08:49:50.860Z,5.50
2023-06-19T08:52:21.192Z,6.00
2023-06-19T08:54:49.154Z,6.20
2023-06-19T08:57:18.739Z,5.90
2023-06-19T08:59:53.367Z,5.63
2023-06-19T09:02:22.297Z,5.40
2023-06-19T09:04:50.971Z,6.20
2023-06-19T09:07:33.333Z,5.33
2023-06-19T09:10:00.924Z,5.93
2023-06-19T09:12:35.965Z,5.80
2023-06-19T09:15:04.274Z,5.87
2023-06-19T09:17:31.718Z,6.27
2023-06-19T09:20:07.002Z,6.30
2023-06-19T09:22:34.932Z,6.63
2023-06-19T09:25:05.480Z,6.27
2023-06-19T09:27:35.886Z,6.37
2023-06-19T09:30:06.353Z,5.57
2023-06-19T09:32:38.014Z,5.53
2023-06-19T09:38:19.418Z,5.93
2023-06-19T09:40:48.976Z,6.20
2023-06-19T09:43:24.151Z,6.20
2023-06-19T09:48:56.759Z,6.30
2023-06-19T09:52:03.477Z,6.23
2023-06-19T09:54:31.666Z,6.30
2023-06-19T09:57:01.192Z,6.13
2023-06-19T09:59:29.558Z,6.10
2023-06-19T10:05:14.882Z,6.13
2023-06-19T10:10:56.855Z,5.67
2023-06-19T10:13:35.268Z,5.47
2023-06-19T10:16:06.097Z,5.83
2023-06-19T10:18:36.271Z,5.50
2023-06-19T10:21:03.488Z,6.60
2023-06-19T10:36:27.284Z,7.07
2023-06-19T10:38:58.429Z,6.37
2023-06-19T10:41:26.492Z,8.30
2023-06-19T10:44:11.086Z,7.13
2023-06-19T10:46:39.675Z,6.53
2023-06-19T10:49:08.513Z,6.70
2023-06-19T10:51:36.519Z,7.33
2023-06-19T11:03:37.871Z,6.43
2023-06-19T11:11:57.911Z,5.30
2023-06-19T11:18:07.838Z,5.10
2023-06-19T11:30:08.665Z,4.57
2023-06-19T11:32:42.376Z,4.73
2023-06-19T11:35:12.301Z,4.77
2023-06-19T11:37:44.457Z,4.73
2023-06-19T11:40:16.569Z,4.70
2023-06-19T12:01:16.908Z,4.50
2023-06-19T12:06:46.906Z,4.60
2023-06-19T12:09:13.947Z,4.70
2023-06-19T12:11:42.441Z,4.50
2023-06-19T12:14:09.713Z,4.63
2023-06-19T12:16:37.016Z,4.30
2023-06-19T12:19:04.343Z,4.30
2023-06-19T12:21:37.802Z,4.50
2023-06-19T12:24:08.723Z,4.70
2023-06-19T12:26:38.643Z,4.97
2023-06-19T12:29:07.431Z,5.20
2023-06-19T12:31:35.838Z,4.70
2023-06-19T12:34:13.500Z,4.77
2023-06-19T12:36:51.442Z,4.97
2023-06-19T12:39:24.490Z,4.63
2023-06-19T12:41:52.979Z,4.20
2023-06-19T12:44:20.215Z,4.30
2023-06-19T12:46:48.119Z,4.67
2023-06-19T12:49:15.032Z,4.60
2023-06-19T12:51:42.985Z,4.73
2023-06-19T12:54:10.750Z,4.47
2023-06-19T12:56:39.658Z,4.60
2023-06-19T12:59:06.454Z,4.37
2023-06-19T13:01:33.618Z,4.53
2023-06-19T13:04:00.604Z,4.60
2023-06-19T13:06:27.704Z,4.70
2023-06-19T13:08:57.112Z,4.77
2023-06-19T13:11:24.184Z,5.00
2023-06-19T13:13:51.205Z,4.47
2023-06-19T13:16:27.223Z,4.87
2023-06-19T13:19:07.324Z,4.50
2023-06-19T13:21:34.940Z,4.80
2023-06-19T13:24:01.940Z,4.17
2023-06-19T13:26:34.871Z,4.13
2023-06-19T13:29:02.017Z,4.00
2023-06-19T13:31:28.952Z,4.60
2023-06-19T13:33:56.327Z,4.40
2023-06-19T13:36:25.122Z,4.43
2023-06-19T13:38:52.993Z,3.90
2023-06-19T13:41:20.127Z,4.13
2023-06-19T13:43:47.237Z,4.40
2023-06-19T13:46:14.344Z,4.20
2023-06-19T13:48:41.275Z,4.20
2023-06-19T13:51:08.930Z,4.23
2023-06-19T13:53:35.723Z,4.23
2023-06-19T13:56:02.805Z,4.60
2023-06-19T13:58:31.275Z,4.10
2023-06-19T14:00:58.548Z,4.57
2023-06-19T14:03:26.002Z,3.90
2023-06-19T14:05:53.104Z,4.10
2023-06-19T14:08:19.951Z,4.00
2023-06-19T14:10:46.831Z,3.83
2023-06-19T14:13:15.043Z,3.20
2023-06-19T14:15:42.350Z,4.03
2023-06-19T14:18:09.670Z,3.90
2023-06-19T14:20:36.642Z,3.93
2023-06-19T14:23:06.639Z,4.30
2023-06-19T14:25:36.538Z,3.73
2023-06-19T14:28:09.730Z,3.63
2023-06-19T14:30:37.123Z,3.77
2023-06-19T14:33:04.638Z,3.87
2023-06-19T14:35:35.319Z,3.93
2023-06-19T14:38:02.684Z,3.70
2023-06-19T14:40:38.750Z,4.20
2023-06-19T14:43:08.239Z,4.00
2023-06-19T14:45:35.758Z,4.00
2023-06-19T14:48:03.756Z,4.37
2023-06-19T14:50:42.887Z,3.83
2023-06-19T14:53:10.008Z,4.20
2023-06-19T14:55:36.927Z,3.40
2023-06-19T14:58:07.139Z,3.40
2023-06-19T15:00:43.402Z,3.73
2023-06-19T15:03:13.766Z,3.90
2023-06-19T15:05:46.036Z,3.47
2023-06-19T15:08:22.531Z,3.77
2023-06-19T15:11:11.240Z,3.93
2023-06-19T15:13:51.820Z,3.97
2023-06-19T15:16:26.610Z,3.43
2023-06-19T15:18:58.109Z,3.37
2023-06-19T15:21:50.229Z,3.57
2023-06-19T15:24:17.320Z,3.57
2023-06-19T15:26:44.601Z,3.53
2023-06-19T15:29:13.314Z,3.40
2023-06-19T15:31:40.832Z,3.13
2023-06-19T15:34:09.714Z,2.90
2023-06-19T15:36:36.799Z,3.30
2023-06-19T15:39:04.197Z,3.57
2023-06-19T15:41:48.212Z,3.10
2023-06-19T15:44:22.633Z,3.37
2023-06-19T15:46:49.580Z,3.40
2023-06-19T15:49:16.719Z,3.30
2023-06-19T15:51:43.608Z,3.53
2023-06-19T15:54:13.157Z,3.20
2023-06-19T15:56:50.197Z,3.60
2023-06-19T15:59:17.463Z,2.90
2023-06-19T16:01:44.437Z,3.07
2023-06-19T16:04:11.742Z,3.60
2023-06-19T16:06:40.850Z,3.53
2023-06-19T16:09:08.158Z,3.50
2023-06-19T16:11:35.801Z,3.63
2023-06-19T16:14:20.422Z,3.40
2023-06-19T16:16:47.276Z,3.67
2023-06-19T16:19:14.086Z,3.67
2023-06-19T16:21:40.867Z,3.77
2023-06-19T16:24:08.700Z,3.50
2023-06-19T16:26:35.572Z,3.17
2023-06-19T16:29:02.897Z,3.43
2023-06-19T16:31:30.183Z,3.27
2023-06-19T16:33:56.984Z,3.43
2023-06-19T16:36:24.609Z,3.20
2023-06-19T16:38:51.426Z,3.43
2023-06-19T16:41:20.784Z,3.47
2023-06-19T16:43:47.888Z,3.33
2023-06-19T16:46:14.870Z,3.03
2023-06-19T16:48:41.725Z,3.30
2023-06-19T16:51:08.791Z,3.27
2023-06-19T16:53:36.084Z,3.70
2023-06-19T16:56:02.876Z,3.77
2023-06-19T16:58:29.924Z,3.57
2023-06-19T17:00:56.850Z,3.20
2023-06-19T17:03:24.321Z,3.67
2023-06-19T17:05:51.186Z,4.10
2023-06-19T17:08:18.195Z,3.63
2023-06-19T17:10:45.151Z,3.80
2023-06-19T17:13:12.027Z,3.40
2023-06-19T17:15:38.920Z,3.33
2023-06-19T17:18:07.429Z,3.80
2023-06-19T17:20:35.060Z,3.70
2023-06-19T17:23:01.938Z,3.40
2023-06-19T17:25:29.537Z,3.30
2023-06-19T17:27:56.965Z,3.20
2023-06-19T17:30:24.197Z,3.33
2023-06-19T17:32:51.628Z,3.33
2023-06-19T17:35:18.812Z,3.60
2023-06-19T17:37:45.774Z,3.40
2023-06-19T17:40:14.451Z,3.67
2023-06-19T17:42:41.973Z,3.00
2023-06-19T17:45:10.218Z,3.13
2023-06-19T17:47:37.236Z,3.27
2023-06-19T17:50:04.333Z,3.10
2023-06-19T17:52:31.201Z,3.60
2023-06-19T17:54:58.080Z,3.20
2023-06-19T17:57:25.089Z,3.23
2023-06-19T17:59:52.453Z,3.20
2023-06-19T18:02:19.395Z,3.40
2023-06-19T18:04:46.252Z,3.93
2023-06-19T18:07:13.104Z,3.40
2023-06-19T18:09:40.330Z,3.50
2023-06-19T18:12:07.292Z,3.40
2023-06-19T18:14:34.151Z,3.40
2023-06-19T18:17:04.743Z,3.80
2023-06-19T18:19:31.805Z,3.70
2023-06-19T18:21:58.619Z,3.63
2023-06-19T18:24:25.521Z,3.43
2023-06-19T18:26:52.379Z,3.43
2023-06-19T18:29:38.932Z,3.73
2023-06-19T18:32:09.475Z,3.07
2023-06-19T18:34:41.553Z,4.07
2023-06-19T18:37:08.612Z,3.63
2023-06-19T18:39:42.310Z,3.77
2023-06-19T18:42:14.883Z,3.40
2023-06-19T18:44:41.725Z,3.67
2023-06-19T18:47:08.655Z,3.80
2023-06-19T18:49:35.719Z,3.47
2023-06-19T18:52:03.356Z,3.57
2023-06-19T18:54:30.102Z,3.10
2023-06-19T18:56:57.549Z,3.30
2023-06-19T18:59:24.540Z,3.77
2023-06-19T19:01:51.844Z,4.07
2023-06-19T19:04:18.828Z,3.40
2023-06-19T19:06:45.634Z,3.20
2023-06-19T19:09:12.538Z,3.80
2023-06-19T19:11:39.550Z,3.23
2023-06-19T19:14:06.439Z,3.70
2023-06-19T19:16:33.220Z,4.03
2023-06-19T19:19:00.358Z,4.77
2023-06-19T19:21:27.208Z,4.73
2023-06-19T19:23:54.090Z,4.10
2023-06-19T19:26:21.084Z,4.70
2023-06-19T19:28:47.868Z,4.13
2023-06-19T19:31:15.390Z,3.90
2023-06-19T19:33:42.225Z,3.67
2023-06-19T19:36:09.352Z,4.40
2023-06-19T19:38:37.529Z,4.10
2023-06-19T19:41:04.408Z,4.07
2023-06-19T19:43:31.415Z,4.20
2023-06-19T19:45:58.257Z,4.07
2023-06-19T19:48:25.246Z,4.60
2023-06-19T19:50:51.977Z,5.07
2023-06-19T19:53:19.124Z,4.73
2023-06-19T19:55:45.797Z,4.77
2023-06-19T19:58:14.476Z,4.90
2023-06-19T20:00:49.728Z,4.90
2023-06-19T20:03:17.661Z,4.53
2023-06-19T20:05:44.648Z,5.20
2023-06-19T20:08:11.540Z,5.43
2023-06-19T20:10:38.573Z,4.90
2023-06-19T20:13:05.503Z,4.87
2023-06-19T20:15:32.364Z,5.70
2023-06-19T20:17:59.213Z,5.57
2023-06-19T20:20:26.769Z,5.60
2023-06-19T20:22:54.162Z,4.77
2023-06-19T20:25:21.816Z,4.90
2023-06-19T20:28:06.076Z,4.27
2023-06-19T20:30:34.645Z,4.40
2023-06-19T20:33:01.510Z,4.43
2023-06-19T20:35:28.382Z,3.93
2023-06-19T20:37:55.732Z,3.80
2023-06-19T20:40:23.545Z,4.03
2023-06-19T20:42:52.247Z,4.10
2023-06-19T20:45:19.928Z,4.17
2023-06-19T20:47:46.623Z,3.83
2023-06-19T20:50:15.288Z,4.17
2023-06-19T20:52:42.005Z,3.60
2023-06-19T20:55:09.470Z,3.93
2023-06-19T20:57:36.596Z,4.27
2023-06-19T21:00:10.651Z,3.93
2023-06-19T21:02:41.154Z,3.63
2023-06-19T21:05:09.966Z,3.83
2023-06-19T21:07:36.957Z,3.60
2023-06-19T21:10:04.965Z,3.87
2023-06-19T21:12:32.477Z,4.17
2023-06-19T21:14:59.320Z,3.83
2023-06-19T21:17:26.210Z,3.50
2023-06-19T21:19:54.549Z,3.90
2023-06-19T21:22:21.359Z,3.87
2023-06-19T21:24:48.234Z,4.17
2023-06-19T21:27:15.008Z,4.20
2023-06-19T21:29:43.687Z,4.27
2023-06-19T21:32:10.373Z,4.33
2023-06-19T21:34:37.217Z,4.20
2023-06-19T21:37:04.036Z,3.90
2023-06-19T21:39:30.782Z,4.03
2023-06-19T21:41:57.604Z,4.17
2023-06-19T21:44:24.477Z,4.27
2023-06-19T21:46:51.523Z,4.30
2023-06-19T21:49:18.691Z,4.03
2023-06-19T21:51:45.557Z,4.30
2023-06-19T21:54:12.303Z,4.40
2023-06-19T21:56:39.438Z,4.63
2023-06-19T21:59:07.973Z,4.90
2023-06-19T22:01:35.482Z,4.60
2023-06-19T22:04:03.391Z,4.73
2023-06-19T22:06:31.489Z,4.77
2023-06-19T22:09:01.264Z,4.33
2023-06-19T22:11:29.224Z,4.27
2023-06-19T22:13:57.538Z,3.70
2023-06-19T22:16:24.744Z,4.70
2023-06-19T22:18:51.578Z,4.67
2023-06-19T22:21:19.204Z,4.00
2023-06-19T22:23:46.128Z,4.30
2023-06-19T22:26:13.302Z,4.40
2023-06-19T22:28:53.994Z,4.20
2023-06-19T22:31:33.152Z,4.07
2023-06-19T22:34:07.405Z,4.33
2023-06-19T22:36:47.007Z,4.30
2023-06-19T22:39:22.959Z,4.47
2023-06-19T22:41:50.048Z,4.37
2023-06-19T22:44:16.898Z,4.43
2023-06-19T22:46:43.765Z,4.87
2023-06-19T22:49:14.940Z,4.53
2023-06-19T22:51:41.915Z,4.20
2023-06-19T22:54:08.720Z,4.43
2023-06-19T22:56:35.761Z,4.90
2023-06-19T22:59:02.970Z,5.00
2023-06-19T23:01:31.871Z,4.90
2023-06-19T23:03:58.768Z,5.00
2023-06-19T23:06:28.300Z,5.47
2023-06-19T23:08:55.167Z,4.90
2023-06-19T23:11:22.207Z,4.70
2023-06-19T23:13:48.957Z,4.67
2023-06-19T23:16:15.752Z,4.93
2023-06-19T23:18:42.439Z,5.17
2023-06-19T23:21:09.518Z,4.90
2023-06-19T23:23:37.673Z,4.60
2023-06-19T23:26:04.413Z,4.83
2023-06-19T23:28:32.876Z,5.63
2023-06-19T23:31:00.302Z,4.83
2023-06-19T23:33:31.235Z,4.80
2023-06-19T23:36:01.380Z,4.83
2023-06-19T23:38:31.925Z,4.83
2023-06-19T23:40:58.891Z,5.57
2023-06-19T23:43:26.071Z,5.07
2023-06-19T23:45:52.976Z,5.27
2023-06-19T23:48:22.674Z,5.03
2023-06-19T23:50:49.937Z,5.10
2023-06-19T23:53:16.876Z,5.20
2023-06-19T23:55:52.977Z,5.37
2023-06-19T23:58:23.475Z,5.00
